sensor_id;sensor_type;location;lat;lon;timestamp;pressure;altitude;pressure_sealevel;temperature;humidity
20037;BME280;10179;42.640;23.312;2024-01-07T00:00:49;92207.28;;;11.35;52.86
20037;BME280;10179;42.640;23.312;2024-01-07T00:03:14;92180.78;;;11.11;52.89
20037;BME280;10179;42.640;23.312;2024-01-07T00:05:40;92218.31;;;11.42;53.11
20037;BME280;10179;42.640;23.312;2024-01-07T00:08:05;92076.53;;;10.70;54.13
20037;BME280;10179;42.640;23.312;2024-01-07T00:10:31;92078.66;;;10.68;53.51
20037;BME280;10179;42.640;23.312;2024-01-07T00:12:56;92132.19;;;11.13;53.61
20037;BME280;10179;42.640;23.312;2024-01-07T00:15:21;92036.66;;;10.58;53.62
20037;BME280;10179;42.640;23.312;2024-01-07T00:17:47;91859.66;;;9.53;53.18
20037;BME280;10179;42.640;23.312;2024-01-07T00:20:12;92131.06;;;11.30;53.53
20037;BME280;10179;42.640;23.312;2024-01-07T00:22:38;92187.25;;;11.69;53.31
20037;BME280;10179;42.640;23.312;2024-01-07T00:25:03;92186.19;;;11.70;53.26
20037;BME280;10179;42.640;23.312;2024-01-07T00:27:29;92126.34;;;11.27;53.29
20037;BME280;10179;42.640;23.312;2024-01-07T00:29:54;92140.25;;;11.42;53.22
20037;BME280;10179;42.640;23.312;2024-01-07T00:32:19;92041.34;;;10.77;52.89
20037;BME280;10179;42.640;23.312;2024-01-07T00:34:45;92163.31;;;11.61;52.89
20037;BME280;10179;42.640;23.312;2024-01-07T00:37:10;91987.34;;;10.50;52.97
20037;BME280;10179;42.640;23.312;2024-01-07T00:39:35;92115.31;;;11.30;52.87
20037;BME280;10179;42.640;23.312;2024-01-07T00:42:01;92162.31;;;11.46;53.15
20037;BME280;10179;42.640;23.312;2024-01-07T00:44:26;92117.44;;;11.17;53.13
20037;BME280;10179;42.640;23.312;2024-01-07T00:46:51;92042.94;;;10.72;53.19
20037;BME280;10179;42.640;23.312;2024-01-07T00:49:17;92110.09;;;11.14;53.26
20037;BME280;10179;42.640;23.312;2024-01-07T00:51:42;91973.16;;;10.31;53.30
20037;BME280;10179;42.640;23.312;2024-01-07T00:54:08;92017.22;;;10.59;53.56
20037;BME280;10179;42.640;23.312;2024-01-07T00:56:33;92113.75;;;11.34;53.64
20037;BME280;10179;42.640;23.312;2024-01-07T00:58:59;92031.88;;;10.86;53.90
20037;BME280;10179;42.640;23.312;2024-01-07T01:01:24;92091.19;;;11.07;53.89
20037;BME280;10179;42.640;23.312;2024-01-07T01:03:49;92042.63;;;10.89;53.91
20037;BME280;10179;42.640;23.312;2024-01-07T01:06:15;92116.31;;;11.44;53.95
20037;BME280;10179;42.640;23.312;2024-01-07T01:08:40;92093.25;;;11.31;54.17
20037;BME280;10179;42.640;23.312;2024-01-07T01:11:09;92110.53;;;11.47;53.72
20037;BME280;10179;42.640;23.312;2024-01-07T01:13:34;91972.34;;;10.56;53.90
20037;BME280;10179;42.640;23.312;2024-01-07T01:15:59;91996.97;;;10.80;53.76
20037;BME280;10179;42.640;23.312;2024-01-07T01:18:25;92069.56;;;11.41;53.73
20037;BME280;10179;42.640;23.312;2024-01-07T01:20:50;92060.09;;;11.40;53.83
20037;BME280;10179;42.640;23.312;2024-01-07T01:23:15;92048.53;;;11.36;53.43
20037;BME280;10179;42.640;23.312;2024-01-07T01:25:41;92064.25;;;11.56;53.48
20037;BME280;10179;42.640;23.312;2024-01-07T01:28:06;92041.41;;;11.46;53.42
20037;BME280;10179;42.640;23.312;2024-01-07T01:30:32;91999.69;;;11.30;53.37
20037;BME280;10179;42.640;23.312;2024-01-07T01:32:57;91943.59;;;11.00;53.66
20037;BME280;10179;42.640;23.312;2024-01-07T01:35:22;91911.66;;;10.78;53.38
20037;BME280;10179;42.640;23.312;2024-01-07T01:37:48;91987.06;;;11.32;53.46
20037;BME280;10179;42.640;23.312;2024-01-07T01:40:13;92027.97;;;11.58;52.90
20037;BME280;10179;42.640;23.312;2024-01-07T01:42:43;91971.38;;;11.11;53.00
20037;BME280;10179;42.640;23.312;2024-01-07T01:45:08;91873.41;;;10.51;53.18
20037;BME280;10179;42.640;23.312;2024-01-07T01:47:34;92031.94;;;11.45;53.36
20037;BME280;10179;42.640;23.312;2024-01-07T01:49:59;91606.50;;;8.72;52.97
20037;BME280;10179;42.640;23.312;2024-01-07T01:52:25;91889.59;;;10.73;53.07
20037;BME280;10179;42.640;23.312;2024-01-07T01:54:51;91925.75;;;10.97;53.44
20037;BME280;10179;42.640;23.312;2024-01-07T01:57:20;92044.88;;;11.32;54.01
20037;BME280;10179;42.640;23.312;2024-01-07T01:59:48;91987.59;;;11.29;54.28
20037;BME280;10179;42.640;23.312;2024-01-07T02:02:13;91924.72;;;10.88;54.32
20037;BME280;10179;42.640;23.312;2024-01-07T02:04:39;91868.16;;;10.51;54.72
20037;BME280;10179;42.640;23.312;2024-01-07T02:07:04;91986.53;;;11.35;55.37
20037;BME280;10179;42.640;23.312;2024-01-07T02:09:30;91918.16;;;10.95;55.69
20037;BME280;10179;42.640;23.312;2024-01-07T02:12:04;91913.09;;;11.04;56.52
20037;BME280;10179;42.640;23.312;2024-01-07T02:14:30;91977.19;;;11.58;57.02
20037;BME280;10179;42.640;23.312;2024-01-07T02:16:56;91873.13;;;11.12;57.47
20037;BME280;10179;42.640;23.312;2024-01-07T02:19:22;91903.47;;;11.39;57.67
20037;BME280;10179;42.640;23.312;2024-01-07T02:21:49;91954.00;;;12.09;57.65
20037;BME280;10179;42.640;23.312;2024-01-07T02:24:15;91792.59;;;11.32;57.43
20037;BME280;10179;42.640;23.312;2024-01-07T02:26:41;91884.94;;;12.23;57.38
20037;BME280;10179;42.640;23.312;2024-01-07T02:29:06;91898.75;;;12.62;56.99
20037;BME280;10179;42.640;23.312;2024-01-07T02:31:31;91901.72;;;12.80;56.44
20037;BME280;10179;42.640;23.312;2024-01-07T02:33:57;91886.78;;;12.94;56.03
20037;BME280;10179;42.640;23.312;2024-01-07T02:36:22;91816.63;;;12.60;55.84
20037;BME280;10179;42.640;23.312;2024-01-07T02:38:47;91847.69;;;13.01;55.64
20037;BME280;10179;42.640;23.312;2024-01-07T02:41:13;91886.78;;;13.37;55.26
20037;BME280;10179;42.640;23.312;2024-01-07T02:43:38;91863.78;;;13.24;54.73
20037;BME280;10179;42.640;23.312;2024-01-07T02:46:03;91717.31;;;12.42;54.43
20037;BME280;10179;42.640;23.312;2024-01-07T02:48:29;91895.91;;;13.64;54.19
20037;BME280;10179;42.640;23.312;2024-01-07T02:50:55;91893.16;;;13.69;54.02
20037;BME280;10179;42.640;23.312;2024-01-07T02:53:21;91900.25;;;13.73;53.85
20037;BME280;10179;42.640;23.312;2024-01-07T02:55:46;91785.03;;;12.98;53.60
20037;BME280;10179;42.640;23.312;2024-01-07T02:58:12;91713.28;;;12.69;53.54
20037;BME280;10179;42.640;23.312;2024-01-07T03:00:37;91901.88;;;13.88;53.49
20037;BME280;10179;42.640;23.312;2024-01-07T03:03:02;91797.22;;;13.32;53.26
20037;BME280;10179;42.640;23.312;2024-01-07T03:05:28;91902.06;;;13.92;53.40
20037;BME280;10179;42.640;23.312;2024-01-07T03:07:58;91900.72;;;13.94;53.42
20037;BME280;10179;42.640;23.312;2024-01-07T03:10:23;91891.47;;;13.78;53.35
20037;BME280;10179;42.640;23.312;2024-01-07T03:12:48;91837.06;;;13.30;53.60
20037;BME280;10179;42.640;23.312;2024-01-07T03:15:14;91927.09;;;13.94;53.50
20037;BME280;10179;42.640;23.312;2024-01-07T03:17:39;91934.50;;;13.92;53.73
20037;BME280;10179;42.640;23.312;2024-01-07T03:20:05;91831.91;;;13.20;54.08
20037;BME280;10179;42.640;23.312;2024-01-07T03:22:33;91887.72;;;13.46;53.22
20037;BME280;10179;42.640;23.312;2024-01-07T03:24:58;91914.22;;;13.36;51.53
20037;BME280;10179;42.640;23.312;2024-01-07T03:27:23;91869.53;;;12.83;51.87
20037;BME280;10179;42.640;23.312;2024-01-07T03:29:49;91913.19;;;12.89;52.56
20037;BME280;10179;42.640;23.312;2024-01-07T03:32:14;91930.56;;;12.66;53.17
20037;BME280;10179;42.640;23.312;2024-01-07T03:34:39;91854.91;;;12.24;53.91
20037;BME280;10179;42.640;23.312;2024-01-07T03:37:05;91924.97;;;12.73;54.28
20037;BME280;10179;42.640;23.312;2024-01-07T03:39:34;91911.84;;;12.44;54.83
20037;BME280;10179;42.640;23.312;2024-01-07T03:42:00;91939.31;;;12.61;55.44
20037;BME280;10179;42.640;23.312;2024-01-07T03:44:26;91926.19;;;12.56;55.72
20037;BME280;10179;42.640;23.312;2024-01-07T03:46:51;91911.09;;;12.38;55.68
20037;BME280;10179;42.640;23.312;2024-01-07T03:49:17;91905.84;;;12.38;55.86
20037;BME280;10179;42.640;23.312;2024-01-07T03:51:43;91888.66;;;12.22;55.80
20037;BME280;10179;42.640;23.312;2024-01-07T03:54:09;91925.25;;;12.47;55.58
20037;BME280;10179;42.640;23.312;2024-01-07T03:56:34;91868.72;;;12.10;55.73
20037;BME280;10179;42.640;23.312;2024-01-07T03:58:59;91913.72;;;12.38;55.70
20037;BME280;10179;42.640;23.312;2024-01-07T04:01:25;91836.84;;;11.83;55.63
20037;BME280;10179;42.640;23.312;2024-01-07T04:03:50;91910.16;;;12.29;55.23
20037;BME280;10179;42.640;23.312;2024-01-07T04:06:16;91892.88;;;12.17;55.27
20037;BME280;10179;42.640;23.312;2024-01-07T04:08:41;91616.41;;;10.20;55.55
20037;BME280;10179;42.640;23.312;2024-01-07T04:11:06;91905.41;;;12.02;55.75
20037;BME280;10179;42.640;23.312;2024-01-07T04:13:32;91715.28;;;10.74;55.72
20037;BME280;10179;42.640;23.312;2024-01-07T04:15:57;91794.25;;;11.22;55.97
20037;BME280;10179;42.640;23.312;2024-01-07T04:18:22;91262.91;;;7.73;55.85
20037;BME280;10179;42.640;23.312;2024-01-07T04:20:48;91787.97;;;11.18;56.14
20037;BME280;10179;42.640;23.312;2024-01-07T04:23:13;91855.47;;;11.62;56.16
20037;BME280;10179;42.640;23.312;2024-01-07T04:25:39;91898.88;;;11.94;56.38
20037;BME280;10179;42.640;23.312;2024-01-07T04:28:06;91898.34;;;11.97;56.43
20037;BME280;10179;42.640;23.312;2024-01-07T04:30:31;91789.44;;;11.35;56.64
20037;BME280;10179;42.640;23.312;2024-01-07T04:32:57;91712.47;;;11.00;57.18
20037;BME280;10179;42.640;23.312;2024-01-07T04:35:22;91820.56;;;11.86;57.60
20037;BME280;10179;42.640;23.312;2024-01-07T04:37:47;91878.84;;;12.27;57.13
20037;BME280;10179;42.640;23.312;2024-01-07T04:40:13;91877.22;;;12.31;57.30
20037;BME280;10179;42.640;23.312;2024-01-07T04:42:38;91778.16;;;11.63;57.36
20037;BME280;10179;42.640;23.312;2024-01-07T04:45:04;91883.75;;;12.39;57.33
20037;BME280;10179;42.640;23.312;2024-01-07T04:47:30;91870.50;;;12.44;57.75
20037;BME280;10179;42.640;23.312;2024-01-07T04:49:57;91853.16;;;12.43;57.86
20037;BME280;10179;42.640;23.312;2024-01-07T04:52:23;91742.69;;;11.90;57.84
20037;BME280;10179;42.640;23.312;2024-01-07T04:54:50;91796.56;;;12.16;57.53
20037;BME280;10179;42.640;23.312;2024-01-07T04:57:16;91843.94;;;12.64;57.70
20037;BME280;10179;42.640;23.312;2024-01-07T04:59:41;91836.66;;;12.56;57.26
20037;BME280;10179;42.640;23.312;2024-01-07T05:02:07;91815.97;;;12.50;57.06
20037;BME280;10179;42.640;23.312;2024-01-07T05:04:32;91877.19;;;13.03;56.76
20037;BME280;10179;42.640;23.312;2024-01-07T05:06:58;91838.91;;;12.87;57.03
20037;BME280;10179;42.640;23.312;2024-01-07T05:09:23;91866.53;;;13.13;56.50
20037;BME280;10179;42.640;23.312;2024-01-07T05:11:48;91782.31;;;12.65;56.55
20037;BME280;10179;42.640;23.312;2024-01-07T05:14:14;91844.56;;;12.99;56.38
20037;BME280;10179;42.640;23.312;2024-01-07T05:16:39;91782.44;;;12.55;56.08
20037;BME280;10179;42.640;23.312;2024-01-07T05:19:04;91783.94;;;12.61;55.85
20037;BME280;10179;42.640;23.312;2024-01-07T05:21:30;91862.94;;;13.04;55.89
20037;BME280;10179;42.640;23.312;2024-01-07T05:23:55;91851.41;;;13.00;55.89
20037;BME280;10179;42.640;23.312;2024-01-07T05:26:21;91760.63;;;12.31;55.81
20037;BME280;10179;42.640;23.312;2024-01-07T05:28:46;91854.25;;;12.85;56.13
20037;BME280;10179;42.640;23.312;2024-01-07T05:31:18;91852.00;;;12.73;56.48
20037;BME280;10179;42.640;23.312;2024-01-07T05:33:44;91851.84;;;12.64;56.44
20037;BME280;10179;42.640;23.312;2024-01-07T05:36:11;91857.94;;;12.60;56.29
20037;BME280;10179;42.640;23.312;2024-01-07T05:38:36;91789.31;;;12.08;56.67
20037;BME280;10179;42.640;23.312;2024-01-07T05:41:02;91613.69;;;11.04;56.55
20037;BME280;10179;42.640;23.312;2024-01-07T05:43:27;91792.53;;;12.24;56.51
20037;BME280;10179;42.640;23.312;2024-01-07T05:45:53;91813.09;;;12.46;56.61
20037;BME280;10179;42.640;23.312;2024-01-07T05:48:21;91851.78;;;12.70;56.45
20037;BME280;10179;42.640;23.312;2024-01-07T05:50:47;91864.94;;;12.70;56.29
20037;BME280;10179;42.640;23.312;2024-01-07T05:53:12;91782.34;;;12.17;56.22
20037;BME280;10179;42.640;23.312;2024-01-07T05:55:37;91896.50;;;12.75;55.66
20037;BME280;10179;42.640;23.312;2024-01-07T05:58:03;91821.03;;;12.17;55.68
20037;BME280;10179;42.640;23.312;2024-01-07T06:00:28;91840.13;;;12.28;55.97
20037;BME280;10179;42.640;23.312;2024-01-07T06:02:54;91859.47;;;12.42;56.48
20037;BME280;10179;42.640;23.312;2024-01-07T06:05:19;91730.13;;;11.53;57.05
20037;BME280;10179;42.640;23.312;2024-01-07T06:07:44;91865.88;;;12.36;57.51
20037;BME280;10179;42.640;23.312;2024-01-07T06:10:10;91830.34;;;12.09;57.66
20037;BME280;10179;42.640;23.312;2024-01-07T06:12:35;91849.09;;;12.27;58.05
20037;BME280;10179;42.640;23.312;2024-01-07T06:15:00;91856.72;;;12.28;58.43
20037;BME280;10179;42.640;23.312;2024-01-07T06:17:26;91865.34;;;12.34;58.48
20037;BME280;10179;42.640;23.312;2024-01-07T06:19:51;91750.84;;;11.59;58.52
20037;BME280;10179;42.640;23.312;2024-01-07T06:22:16;91766.88;;;11.58;58.42
20037;BME280;10179;42.640;23.312;2024-01-07T06:24:42;91823.22;;;12.10;58.20
20037;BME280;10179;42.640;23.312;2024-01-07T06:27:07;91706.75;;;11.22;58.12
20037;BME280;10179;42.640;23.312;2024-01-07T06:29:33;91791.63;;;11.86;58.40
20037;BME280;10179;42.640;23.312;2024-01-07T06:31:58;91824.56;;;12.07;58.53
20037;BME280;10179;42.640;23.312;2024-01-07T06:34:24;91870.09;;;12.32;58.38
20037;BME280;10179;42.640;23.312;2024-01-07T06:36:49;91771.78;;;11.69;58.40
20037;BME280;10179;42.640;23.312;2024-01-07T06:39:15;91792.72;;;11.80;58.55
20037;BME280;10179;42.640;23.312;2024-01-07T06:41:40;91847.19;;;12.08;58.44
20037;BME280;10179;42.640;23.312;2024-01-07T06:44:05;91831.41;;;12.08;58.51
20037;BME280;10179;42.640;23.312;2024-01-07T06:46:31;91874.31;;;12.33;58.47
20037;BME280;10179;42.640;23.312;2024-01-07T06:48:56;91898.06;;;12.52;58.28
20037;BME280;10179;42.640;23.312;2024-01-07T06:51:22;91889.38;;;12.51;57.76
20037;BME280;10179;42.640;23.312;2024-01-07T06:53:47;91781.41;;;11.79;58.25
20037;BME280;10179;42.640;23.312;2024-01-07T06:56:13;91894.53;;;12.61;58.20
20037;BME280;10179;42.640;23.312;2024-01-07T06:58:38;91807.66;;;12.13;57.89
20037;BME280;10179;42.640;23.312;2024-01-07T07:01:06;91900.28;;;12.63;58.12
20037;BME280;10179;42.640;23.312;2024-01-07T07:03:32;91874.09;;;12.53;58.31
20037;BME280;10179;42.640;23.312;2024-01-07T07:05:58;91890.25;;;12.71;58.00
20037;BME280;10179;42.640;23.312;2024-01-07T07:08:23;91744.88;;;11.78;57.86
20037;BME280;10179;42.640;23.312;2024-01-07T07:10:48;91893.81;;;12.80;58.27
20037;BME280;10179;42.640;23.312;2024-01-07T07:13:14;91742.72;;;11.85;57.80
20037;BME280;10179;42.640;23.312;2024-01-07T07:15:40;91887.25;;;12.77;57.77
20037;BME280;10179;42.640;23.312;2024-01-07T07:18:05;91879.06;;;12.79;57.69
20037;BME280;10179;42.640;23.312;2024-01-07T07:20:30;91601.72;;;10.93;57.78
20037;BME280;10179;42.640;23.312;2024-01-07T07:22:56;91873.50;;;12.80;58.04
20037;BME280;10179;42.640;23.312;2024-01-07T07:25:22;91881.63;;;12.84;58.35
20037;BME280;10179;42.640;23.312;2024-01-07T07:27:47;91849.88;;;12.75;57.96
20037;BME280;10179;42.640;23.312;2024-01-07T07:30:13;91866.69;;;12.79;57.99
20037;BME280;10179;42.640;23.312;2024-01-07T07:32:39;91876.75;;;12.96;58.14
20037;BME280;10179;42.640;23.312;2024-01-07T07:35:07;91877.75;;;13.00;57.52
20037;BME280;10179;42.640;23.312;2024-01-07T07:37:32;91881.91;;;13.06;57.15
20037;BME280;10179;42.640;23.312;2024-01-07T07:39:58;91847.47;;;12.98;56.07
20037;BME280;10179;42.640;23.312;2024-01-07T07:42:23;91792.41;;;12.58;56.20
20037;BME280;10179;42.640;23.312;2024-01-07T07:44:49;91746.97;;;12.29;56.61
20037;BME280;10179;42.640;23.312;2024-01-07T07:47:14;91118.97;;;7.74;56.17
20037;BME280;10179;42.640;23.312;2024-01-07T07:49:39;91798.97;;;12.80;55.77
20037;BME280;10179;42.640;23.312;2024-01-07T07:52:07;91834.03;;;12.99;55.73
20037;BME280;10179;42.640;23.312;2024-01-07T07:54:34;91851.97;;;13.16;55.63
20037;BME280;10179;42.640;23.312;2024-01-07T07:56:59;91867.06;;;13.34;55.40
20037;BME280;10179;42.640;23.312;2024-01-07T07:59:25;91866.28;;;13.34;54.52
20037;BME280;10179;42.640;23.312;2024-01-07T08:01:50;91769.13;;;12.65;54.69
20037;BME280;10179;42.640;23.312;2024-01-07T08:04:15;91730.47;;;12.42;54.65
20037;BME280;10179;42.640;23.312;2024-01-07T08:06:41;91816.63;;;12.98;54.53
20037;BME280;10179;42.640;23.312;2024-01-07T08:09:08;91874.53;;;13.46;54.51
20037;BME280;10179;42.640;23.312;2024-01-07T08:11:33;91857.19;;;13.40;54.63
20037;BME280;10179;42.640;23.312;2024-01-07T08:13:59;91791.56;;;13.01;54.54
20037;BME280;10179;42.640;23.312;2024-01-07T08:16:26;91765.88;;;12.93;54.15
20037;BME280;10179;42.640;23.312;2024-01-07T08:18:52;91841.63;;;13.25;53.87
20037;BME280;10179;42.640;23.312;2024-01-07T08:21:17;91868.13;;;13.52;53.96
20037;BME280;10179;42.640;23.312;2024-01-07T08:23:43;91836.03;;;13.45;53.54
20037;BME280;10179;42.640;23.312;2024-01-07T08:26:08;91867.13;;;13.48;53.30
20037;BME280;10179;42.640;23.312;2024-01-07T08:28:33;91846.75;;;13.35;53.64
20037;BME280;10179;42.640;23.312;2024-01-07T08:30:59;91807.34;;;13.06;53.66
20037;BME280;10179;42.640;23.312;2024-01-07T08:33:24;91847.31;;;13.32;53.60
20037;BME280;10179;42.640;23.312;2024-01-07T08:35:50;91883.88;;;13.39;54.23
20037;BME280;10179;42.640;23.312;2024-01-07T08:38:15;91864.69;;;13.33;54.47
20037;BME280;10179;42.640;23.312;2024-01-07T08:40:41;91881.16;;;13.44;54.54
20037;BME280;10179;42.640;23.312;2024-01-07T08:43:06;91836.19;;;13.35;54.07
20037;BME280;10179;42.640;23.312;2024-01-07T08:45:31;91677.56;;;12.44;53.78
20037;BME280;10179;42.640;23.312;2024-01-07T08:47:57;91858.97;;;13.64;53.20
20037;BME280;10179;42.640;23.312;2024-01-07T08:50:22;91869.72;;;13.67;53.48
20037;BME280;10179;42.640;23.312;2024-01-07T08:52:47;91871.91;;;13.79;53.69
20037;BME280;10179;42.640;23.312;2024-01-07T08:55:13;91853.84;;;13.86;53.50
20037;BME280;10179;42.640;23.312;2024-01-07T08:57:38;91730.63;;;13.07;53.17
20037;BME280;10179;42.640;23.312;2024-01-07T09:00:05;91740.59;;;13.10;53.44
20037;BME280;10179;42.640;23.312;2024-01-07T09:02:32;91845.31;;;13.75;54.14
20037;BME280;10179;42.640;23.312;2024-01-07T09:04:58;91816.50;;;13.46;54.21
20037;BME280;10179;42.640;23.312;2024-01-07T09:07:23;91711.94;;;12.71;54.68
20037;BME280;10179;42.640;23.312;2024-01-07T09:09:49;91858.41;;;13.67;55.43
20037;BME280;10179;42.640;23.312;2024-01-07T09:12:14;91840.00;;;13.61;55.30
20037;BME280;10179;42.640;23.312;2024-01-07T09:14:39;91845.22;;;13.48;55.11
20037;BME280;10179;42.640;23.312;2024-01-07T09:17:05;91835.13;;;13.69;55.02
20037;BME280;10179;42.640;23.312;2024-01-07T09:19:30;91819.00;;;13.56;54.88
20037;BME280;10179;42.640;23.312;2024-01-07T09:21:56;91874.47;;;13.84;54.18
20037;BME280;10179;42.640;23.312;2024-01-07T09:24:21;91846.53;;;13.83;54.80
20037;BME280;10179;42.640;23.312;2024-01-07T09:26:46;91870.59;;;13.95;54.84
20037;BME280;10179;42.640;23.312;2024-01-07T09:29:12;91835.13;;;13.69;55.17
20037;BME280;10179;42.640;23.312;2024-01-07T09:31:39;91791.28;;;13.40;55.05
20037;BME280;10179;42.640;23.312;2024-01-07T09:34:04;91633.13;;;11.99;55.24
20037;BME280;10179;42.640;23.312;2024-01-07T09:36:32;91813.66;;;13.75;55.60
20037;BME280;10179;42.640;23.312;2024-01-07T09:38:57;91844.44;;;14.13;55.17
20037;BME280;10179;42.640;23.312;2024-01-07T09:41:22;91741.53;;;13.52;54.76
20037;BME280;10179;42.640;23.312;2024-01-07T09:43:48;91852.09;;;14.28;54.71
20037;BME280;10179;42.640;23.312;2024-01-07T09:46:15;91736.88;;;13.63;54.31
20037;BME280;10179;42.640;23.312;2024-01-07T09:48:41;91854.84;;;14.37;54.33
20037;BME280;10179;42.640;23.312;2024-01-07T09:51:07;91853.38;;;14.44;54.47
20037;BME280;10179;42.640;23.312;2024-01-07T09:53:35;91781.97;;;13.94;53.92
20037;BME280;10179;42.640;23.312;2024-01-07T09:56:08;91855.28;;;14.58;53.56
20037;BME280;10179;42.640;23.312;2024-01-07T09:58:36;91845.78;;;14.56;52.77
20037;BME280;10179;42.640;23.312;2024-01-07T10:01:02;91841.38;;;14.52;52.31
20037;BME280;10179;42.640;23.312;2024-01-07T10:03:30;91756.44;;;13.90;52.96
20037;BME280;10179;42.640;23.312;2024-01-07T10:05:55;91840.59;;;14.51;52.90
20037;BME280;10179;42.640;23.312;2024-01-07T10:08:21;91815.91;;;14.42;52.72
20037;BME280;10179;42.640;23.312;2024-01-07T10:10:48;91829.25;;;14.65;51.60
20037;BME280;10179;42.640;23.312;2024-01-07T10:13:15;91797.72;;;14.27;52.25
20037;BME280;10179;42.640;23.312;2024-01-07T10:15:40;91505.09;;;12.46;52.46
20037;BME280;10179;42.640;23.312;2024-01-07T10:18:06;91789.06;;;14.54;52.66
20037;BME280;10179;42.640;23.312;2024-01-07T10:20:33;91808.31;;;14.54;52.27
20037;BME280;10179;42.640;23.312;2024-01-07T10:23:02;91790.38;;;14.24;53.17
20037;BME280;10179;42.640;23.312;2024-01-07T10:25:30;91818.56;;;14.70;53.14
20037;BME280;10179;42.640;23.312;2024-01-07T10:27:59;91816.31;;;14.77;52.58
20037;BME280;10179;42.640;23.312;2024-01-07T10:30:25;91750.19;;;14.27;52.79
20037;BME280;10179;42.640;23.312;2024-01-07T10:32:55;91803.28;;;14.80;53.03
20037;BME280;10179;42.640;23.312;2024-01-07T10:35:28;91792.63;;;14.86;53.01
20037;BME280;10179;42.640;23.312;2024-01-07T10:37:54;91695.66;;;14.08;52.18
20037;BME280;10179;42.640;23.312;2024-01-07T10:40:20;91800.25;;;14.87;52.60
20037;BME280;10179;42.640;23.312;2024-01-07T10:42:46;91792.22;;;14.92;52.56
20037;BME280;10179;42.640;23.312;2024-01-07T10:45:12;91748.31;;;14.69;52.44
20037;BME280;10179;42.640;23.312;2024-01-07T10:47:40;91732.78;;;14.67;52.29
20037;BME280;10179;42.640;23.312;2024-01-07T10:50:08;91752.91;;;14.77;52.02
20037;BME280;10179;42.640;23.312;2024-01-07T10:52:39;91798.25;;;15.20;51.97
20037;BME280;10179;42.640;23.312;2024-01-07T10:55:09;91740.56;;;14.86;51.70
20037;BME280;10179;42.640;23.312;2024-01-07T10:57:39;91804.66;;;15.28;51.33
20037;BME280;10179;42.640;23.312;2024-01-07T11:00:07;91757.53;;;15.08;50.76
20037;BME280;10179;42.640;23.312;2024-01-07T11:02:48;91748.09;;;15.15;50.69
20037;BME280;10179;42.640;23.312;2024-01-07T11:05:23;91785.97;;;15.47;49.68
20037;BME280;10179;42.640;23.312;2024-01-07T11:08:01;91766.78;;;15.19;50.23
20037;BME280;10179;42.640;23.312;2024-01-07T11:10:39;91727.84;;;14.88;50.51
20037;BME280;10179;42.640;23.312;2024-01-07T11:13:07;91797.88;;;15.36;50.25
20037;BME280;10179;42.640;23.312;2024-01-07T11:18:22;91769.38;;;15.33;49.74
20037;BME280;10179;42.640;23.312;2024-01-07T11:20:48;91659.03;;;14.57;49.37
20037;BME280;10179;42.640;23.312;2024-01-07T11:23:35;91795.53;;;15.57;49.37
20037;BME280;10179;42.640;23.312;2024-01-07T11:26:05;91748.09;;;15.15;49.55
20037;BME280;10179;42.640;23.312;2024-01-07T11:31:16;91770.88;;;15.47;49.10
20037;BME280;10179;42.640;23.312;2024-01-07T11:33:45;91710.16;;;14.97;49.19
20037;BME280;10179;42.640;23.312;2024-01-07T11:36:13;91793.19;;;15.69;49.01
20037;BME280;10179;42.640;23.312;2024-01-07T11:38:47;91799.59;;;15.77;49.08
20037;BME280;10179;42.640;23.312;2024-01-07T11:41:14;91751.31;;;15.48;48.69
20037;BME280;10179;42.640;23.312;2024-01-07T11:43:52;91761.38;;;15.46;48.48
20037;BME280;10179;42.640;23.312;2024-01-07T11:46:18;91807.97;;;15.70;48.60
20037;BME280;10179;42.640;23.312;2024-01-07T11:48:45;91779.81;;;15.51;48.78
20037;BME280;10179;42.640;23.312;2024-01-07T11:51:11;91803.50;;;15.79;48.88
20037;BME280;10179;42.640;23.312;2024-01-07T11:53:36;91689.75;;;15.12;48.64
20037;BME280;10179;42.640;23.312;2024-01-07T11:56:02;91800.75;;;15.84;48.53
20037;BME280;10179;42.640;23.312;2024-01-07T11:58:27;91799.78;;;15.80;48.36
20037;BME280;10179;42.640;23.312;2024-01-07T12:00:53;91778.09;;;15.69;48.57
20037;BME280;10179;42.640;23.312;2024-01-07T12:03:18;91791.34;;;15.78;48.47
20037;BME280;10179;42.640;23.312;2024-01-07T12:05:44;91793.88;;;15.83;48.76
20037;BME280;10179;42.640;23.312;2024-01-07T12:08:10;91745.28;;;15.57;48.61
20037;BME280;10179;42.640;23.312;2024-01-07T12:10:37;91791.59;;;15.90;48.42
20037;BME280;10179;42.640;23.312;2024-01-07T12:13:03;91791.47;;;15.95;48.65
20037;BME280;10179;42.640;23.312;2024-01-07T12:15:29;91800.25;;;16.05;48.03
20037;BME280;10179;42.640;23.312;2024-01-07T12:17:56;91738.66;;;15.68;47.77
20037;BME280;10179;42.640;23.312;2024-01-07T12:20:22;91801.78;;;16.06;47.83
20037;BME280;10179;42.640;23.312;2024-01-07T12:22:47;91712.50;;;15.44;48.09
20037;BME280;10179;42.640;23.312;2024-01-07T12:25:13;91705.50;;;15.39;47.99
20037;BME280;10179;42.640;23.312;2024-01-07T12:27:41;91802.75;;;16.10;47.99
20037;BME280;10179;42.640;23.312;2024-01-07T12:30:06;91793.84;;;16.06;47.82
20037;BME280;10179;42.640;23.312;2024-01-07T12:32:32;91750.34;;;15.67;47.65
20037;BME280;10179;42.640;23.312;2024-01-07T12:35:01;91810.13;;;15.90;48.02
20037;BME280;10179;42.640;23.312;2024-01-07T12:37:27;91794.84;;;15.87;47.82
20037;BME280;10179;42.640;23.312;2024-01-07T12:39:53;91770.22;;;15.64;48.07
20037;BME280;10179;42.640;23.312;2024-01-07T12:42:19;91794.50;;;15.80;48.28
20037;BME280;10179;42.640;23.312;2024-01-07T12:44:45;91797.25;;;15.75;48.13
20037;BME280;10179;42.640;23.312;2024-01-07T12:47:10;91794.75;;;15.70;48.43
20037;BME280;10179;42.640;23.312;2024-01-07T12:49:36;91796.88;;;15.68;48.45